»·PEaware :: UAL568 KSLC-KJAC

UAL568 :: KSLC-KJAC

FLIGHT INFORMATION

Flight Status: Arrived
Operator:
United Airlines
More flights by this operator :: More flights under this callsign
Pilot: Sergei F. (8485)
Aircraft: BOEING 737-300
(B733)
More flights by this aircraft type
Origin: KSLC Salt Lake City Intl
United States
Destination: KJAC Jackson Hole
United States
More flights between these airports :: More routes between these airports
Route: +LEETZ6 HOLTR
File this flight plan on PilotEdge
Remarks:
Altitude:
(Current/Filed)
17,000ft
Speed:
(Current/Filed)
300kts
Departed: 12-May-18 05:53 PM
Arrived: 12-May-18 06:42 PM
Distance/Time
Traveled:
178nm/0:49
Distance/Time
To Go:
Arrived

Flight Plot

Page will automatically refresh every two minutes.

Flight plan parsing failed; only flown route is shown


Map Options




Map Legend


Flown Route
Filed Route
Departure Airport
Arrival Airport
Navaid (VOR, NDB)
Fix

Horizontal Profiles

Position Reports

Time Latitude Longitude Heading Altitude Ground
Speed
12-May-18 17:18 40.785565 -111.978041 227 4225ft 0kts
12-May-18 17:19 40.785565 -111.978041 227 4225ft 0kts
12-May-18 17:20 40.785565 -111.978041 227 4225ft 0kts
12-May-18 17:21 40.785565 -111.978041 227 4225ft 0kts
12-May-18 17:22 40.785565 -111.978041 227 4225ft 0kts
12-May-18 17:23 40.785565 -111.978041 227 4225ft 0kts
12-May-18 17:24 40.785565 -111.978041 227 4225ft 0kts
12-May-18 17:25 40.785565 -111.978041 227 4225ft 0kts
12-May-18 17:26 40.785565 -111.978041 227 4225ft 0kts
12-May-18 17:27 40.785565 -111.978041 227 4225ft 0kts
12-May-18 17:28 40.785565 -111.978041 227 4225ft 0kts
12-May-18 17:29 40.785565 -111.978041 227 4225ft 0kts
12-May-18 17:30 40.785565 -111.978041 227 4225ft 0kts
12-May-18 17:31 40.785565 -111.978041 227 4225ft 0kts
12-May-18 17:32 40.785565 -111.978041 227 4225ft 0kts
12-May-18 17:33 40.785565 -111.978041 227 4225ft 0kts
12-May-18 17:34 40.785565 -111.978041 227 4225ft 0kts
12-May-18 17:35 40.785565 -111.978041 227 4225ft 0kts
12-May-18 17:36 40.785567 -111.978038 227 4225ft 0kts
12-May-18 17:37 40.785986 -111.977637 172 4224ft 2kts
12-May-18 17:38 40.786236 -111.977933 92 4224ft 3kts
12-May-18 17:39 40.786250 -111.977558 87 4224ft 0kts
12-May-18 17:40 40.786250 -111.977558 87 4224ft 0kts
12-May-18 17:41 40.786250 -111.977558 87 4224ft 0kts
12-May-18 17:42 40.786250 -111.977558 87 4224ft 0kts
12-May-18 17:43 40.786250 -111.977558 87 4224ft 0kts
12-May-18 17:44 40.786250 -111.977552 87 4224ft 0kts
12-May-18 17:45 40.787203 -111.976759 354 4223ft 10kts
12-May-18 17:46 40.790645 -111.977168 355 4222ft 15kts
12-May-18 17:47 40.795592 -111.977744 355 4223ft 19kts
12-May-18 17:48 40.800433 -111.978303 354 4227ft 17kts
12-May-18 17:49 40.805191 -111.978856 354 4226ft 9kts
12-May-18 17:50 40.807280 -111.978758 46 4226ft 2kts
12-May-18 17:51 40.807311 -111.978712 49 4226ft 0kts
12-May-18 17:52 40.807263 -111.977107 131 4226ft 9kts
12-May-18 17:53 40.790795 -111.975086 175 4422ft 135kts
12-May-18 17:54 40.757122 -111.998911 249 6432ft 182kts
12-May-18 17:55 40.756256 -112.069175 305 8253ft 242kts
12-May-18 17:56 40.812514 -112.140570 313 9869ft 299kts
12-May-18 17:57 40.869074 -112.211192 313 11992ft 279kts
12-May-18 17:58 40.945069 -112.239476 352 14166ft 305kts
12-May-18 17:59 41.016898 -112.198433 81 15731ft 327kts
12-May-18 18:00 41.041345 -112.079477 52 17045ft 363kts
12-May-18 18:01 41.112391 -111.980253 51 17003ft 386kts
12-May-18 18:02 41.184153 -111.875405 51 17020ft 384kts
12-May-18 18:03 41.269787 -111.792778 29 17024ft 391kts
12-May-18 18:04 41.365418 -111.725020 30 16998ft 391kts
12-May-18 18:05 41.467614 -111.678780 16 16991ft 391kts
12-May-18 18:06 41.571420 -111.637688 17 16985ft 391kts
12-May-18 18:07 41.675427 -111.596154 17 16984ft 391kts
12-May-18 18:08 41.779686 -111.554371 17 16985ft 391kts
12-May-18 18:09 41.885123 -111.527227 9 16985ft 390kts
12-May-18 18:10 41.990191 -111.503580 9 16983ft 390kts
12-May-18 18:11 42.095677 -111.479787 9 16984ft 390kts
12-May-18 18:12 42.197743 -111.456751 9 17008ft 390kts
12-May-18 18:13 42.303182 -111.432184 16 17021ft 389kts
12-May-18 18:14 42.400364 -111.377593 23 17040ft 387kts
12-May-18 18:15 42.497304 -111.322923 24 17066ft 387kts
12-May-18 18:16 42.594899 -111.267939 24 17359ft 390kts
12-May-18 18:17 42.692949 -111.212509 24 19049ft 390kts
12-May-18 18:18 42.792442 -111.156559 18 19073ft 390kts
12-May-18 18:19 42.898734 -111.130156 10 19068ft 390kts
12-May-18 18:20 43.002786 -111.113751 9 19079ft 365kts
12-May-18 18:21 43.099876 -111.104892 9 19048ft 352kts
12-May-18 18:22 43.197825 -111.096435 10 20647ft 363kts
12-May-18 18:23 43.294919 -111.071858 35 22606ft 346kts
12-May-18 18:24 43.368251 -110.996651 57 21120ft 327kts
12-May-18 18:25 43.408743 -110.888538 70 21048ft 327kts
12-May-18 18:26 43.448673 -110.776786 70 21048ft 328kts
12-May-18 18:27 43.488634 -110.665278 70 21046ft 328kts
12-May-18 18:28 43.527827 -110.555887 70 21047ft 328kts
12-May-18 18:29 43.567026 -110.445671 69 20012ft 324kts
12-May-18 18:30 43.602171 -110.342203 70 18165ft 299kts
12-May-18 18:31 43.634302 -110.245946 53 16318ft 286kts
12-May-18 18:32 43.704603 -110.252218 334 14766ft 297kts
12-May-18 18:33 43.774750 -110.300748 337 13652ft 273kts
12-May-18 18:34 43.823915 -110.370182 280 12669ft 270kts
12-May-18 18:35 43.818992 -110.468947 264 11741ft 248kts
12-May-18 18:36 43.809290 -110.546713 244 10823ft 241kts
12-May-18 18:37 43.778571 -110.625691 218 9876ft 226kts
12-May-18 18:38 43.733530 -110.674753 210 8765ft 191kts
12-May-18 18:39 43.688636 -110.698417 196 7910ft 164kts
12-May-18 18:40 43.646343 -110.718813 197 7112ft 157kts
12-May-18 18:41 43.606479 -110.738147 198 6431ft 92kts
12-May-18 18:42 43.603574 -110.738514 133 6424ft 1kts
12-May-18 18:43 43.602961 -110.737418 109 6425ft 0kts
12-May-18 18:44 43.602961 -110.737418 109 6425ft 0kts

Navigation Log

Ident Type
Flight plan parsing failed, navigation log unavailable